Time;durP1;ratioP1;P1;durP2;ratioP2;P2;SDS_P1;SDS_P2;PMS_P1;PMS_P2;Temp;Humidity;BMP_temperature;BMP_pressure;BME280_temperature;BME280_humidity;BME280_pressure;Samples;Min_cycle;Max_cycle;Signal;HPM_P1;HPM_P2
2022/02/13 00:00:18;;;;;;;;;;;;;;;0.52;73.45;101522.31;5094511;28;885;-59
2022/02/13 00:02:45;;;;;;;;;;;;;;;0.51;73.67;101523.44;5094376;28;802;-58
2022/02/13 00:05:11;;;;;;;;;;;;;;;0.42;74.37;101527.09;5094332;28;815;-59
2022/02/13 00:07:38;;;;;;;;;;;;;;;0.47;74.37;101525.13;5094423;28;807;-59
2022/02/13 00:10:06;;;;;;;;;;;;;;;0.54;74.08;101530.19;5094427;28;818;-59
2022/02/13 00:12:33;;;;;;;;;;;;;;;0.57;74.65;101518.72;5094382;28;810;-59
2022/02/13 00:15:00;;;;;;;;;;;;;;;0.56;74.35;101523.34;5093836;28;1886;-59
2022/02/13 00:17:26;;;;;;;;;;;;;;;0.56;74.45;101522.53;5094316;28;885;-59
2022/02/13 00:19:52;;;;;;;;;;;;;;;0.51;74.57;101515.28;5094320;28;902;-58
2022/02/13 00:22:21;;;;;;;;;;;;;;;0.48;75.17;101518.56;5075974;28;885;-58
2022/02/13 00:24:47;;;;;;;;;;;;;;;0.50;75.14;101518.28;5094160;28;826;-59
2022/02/13 00:27:14;;;;;;;;;;;;;;;0.55;75.35;101527.16;5093878;28;878;-59
2022/02/13 00:29:42;;;;;;;;;;;;;;;0.58;75.17;101517.63;5094060;28;869;-59
2022/02/13 00:32:09;;;;;;;;;;;;;;;0.61;76.23;101517.81;5094018;28;851;-58
2022/02/13 00:34:36;;;;;;;;;;;;;;;0.56;75.93;101514.38;5093651;28;1889;-58
2022/02/13 00:37:03;;;;;;;;;;;;;;;0.43;76.77;101510.47;5093594;28;1239;-58
2022/02/13 00:39:29;;;;;;;;;;;;;;;0.46;76.57;101509.88;5093716;28;878;-59
2022/02/13 00:41:56;;;;;;;;;;;;;;;0.46;76.47;101509.88;5093715;28;965;-58
2022/02/13 00:44:23;;;;;;;;;;;;;;;0.49;76.76;101498.44;5093901;28;807;-59
2022/02/13 00:46:49;;;;;;;;;;;;;;;0.51;77.00;101495.38;5093782;28;830;-59
2022/02/13 00:49:16;;;;;;;;;;;;;;;0.51;76.90;101495.38;5093582;28;897;-59
2022/02/13 00:51:42;;;;;;;;;;;;;;;0.33;78.24;101489.63;5093652;28;799;-58
2022/02/13 00:54:09;;;;;;;;;;;;;;;0.39;78.61;101493.91;5092600;28;1965;-59
2022/02/13 00:56:35;;;;;;;;;;;;;;;0.46;78.77;101499.00;5075293;28;847;-58
2022/02/13 00:59:03;;;;;;;;;;;;;;;0.47;79.22;101487.03;5093501;28;819;-58
2022/02/13 01:01:28;;;;;;;;;;;;;;;0.47;78.89;101484.31;5093387;28;854;-58
2022/02/13 01:03:55;;;;;;;;;;;;;;;0.44;78.99;101478.63;5093311;28;862;-59
2022/02/13 01:06:21;;;;;;;;;;;;;;;0.43;79.20;101486.00;5093501;28;1008;-59
2022/02/13 01:08:48;;;;;;;;;;;;;;;0.47;79.99;101481.59;5093002;28;914;-59
2022/02/13 01:11:14;;;;;;;;;;;;;;;0.62;79.84;101477.84;5093243;28;850;-58
2022/02/13 01:13:43;;;;;;;;;;;;;;;0.68;79.79;101476.63;5093001;28;1886;-58
2022/02/13 01:16:09;;;;;;;;;;;;;;;0.72;78.93;101469.50;5093178;28;904;-59
2022/02/13 01:18:36;;;;;;;;;;;;;;;0.75;79.44;101473.56;5092966;28;830;-58
2022/02/13 01:21:02;;;;;;;;;;;;;;;0.84;79.15;101471.78;5093147;28;799;-59
2022/02/13 01:23:29;;;;;;;;;;;;;;;0.84;78.89;101470.97;5093010;28;898;-58
2022/02/13 01:25:56;;;;;;;;;;;;;;;0.78;79.84;101462.88;5093036;28;834;-59
2022/02/13 01:28:22;;;;;;;;;;;;;;;0.89;78.69;101462.72;5093424;28;819;-59
2022/02/13 01:30:49;;;;;;;;;;;;;;;0.88;79.50;101466.56;5093355;28;889;-59
2022/02/13 01:33:15;;;;;;;;;;;;;;;0.96;79.48;101458.53;5092877;28;897;-58
2022/02/13 01:35:42;;;;;;;;;;;;;;;1.30;78.75;101454.69;5093355;28;1886;-59
2022/02/13 01:38:09;;;;;;;;;;;;;;;1.30;78.26;101454.69;5092507;28;1391;-59
2022/02/13 01:40:35;;;;;;;;;;;;;;;1.33;77.89;101458.72;5093210;28;827;-58
2022/02/13 01:43:02;;;;;;;;;;;;;;;1.28;78.26;101450.63;5092553;28;795;-58
2022/02/13 01:45:28;;;;;;;;;;;;;;;1.30;78.48;101446.53;5092583;28;878;-58
2022/02/13 01:47:55;;;;;;;;;;;;;;;1.40;78.68;101440.06;5092560;28;890;-58
2022/02/13 01:50:21;;;;;;;;;;;;;;;1.41;78.14;101441.69;5074181;28;1314;-58
2022/02/13 01:52:47;;;;;;;;;;;;;;;1.38;77.91;101453.19;5092313;28;866;-58
2022/02/13 01:55:14;;;;;;;;;;;;;;;1.45;77.69;101439.16;5092367;28;2016;-58
2022/02/13 01:57:40;;;;;;;;;;;;;;;1.42;77.50;101438.66;5092321;28;858;-59
2022/02/13 02:00:07;;;;;;;;;;;;;;;1.42;78.16;101443.31;5091937;28;883;-58
2022/02/13 02:02:33;;;;;;;;;;;;;;;1.41;78.48;101441.69;5092076;28;1272;-58
2022/02/13 02:05:00;;;;;;;;;;;;;;;1.35;78.02;101435.53;5092152;28;827;-58
2022/02/13 02:07:27;;;;;;;;;;;;;;;1.27;78.99;101438.13;5092056;28;799;-58
2022/02/13 02:09:53;;;;;;;;;;;;;;;1.19;78.78;101443.16;5092087;28;831;-59
2022/02/13 02:12:20;;;;;;;;;;;;;;;1.15;79.11;101438.59;5091785;28;879;-58
2022/02/13 02:14:47;;;;;;;;;;;;;;;1.07;79.23;101431.09;5091954;28;1894;-59
2022/02/13 02:17:13;;;;;;;;;;;;;;;1.09;79.87;101437.91;5092307;28;1104;-58
2022/02/13 02:19:40;;;;;;;;;;;;;;;1.06;80.00;101435.75;5091985;28;822;-58
2022/02/13 02:22:08;;;;;;;;;;;;;;;1.29;79.52;101438.66;5092001;28;826;-58
2022/02/13 02:24:35;;;;;;;;;;;;;;;1.47;78.82;101448.66;5091964;28;818;-58
2022/02/13 02:27:03;;;;;;;;;;;;;;;1.47;78.68;101450.56;5091776;28;869;-59
2022/02/13 02:29:29;;;;;;;;;;;;;;;1.47;79.13;101445.13;5092103;28;909;-58
2022/02/13 02:31:55;;;;;;;;;;;;;;;1.50;78.57;101450.78;5091783;28;950;-58
2022/02/13 02:34:21;;;;;;;;;;;;;;;1.57;78.39;101450.38;5091410;28;1893;-58
2022/02/13 02:36:47;;;;;;;;;;;;;;;1.65;78.56;101457.06;5091715;28;933;-58
2022/02/13 02:39:14;;;;;;;;;;;;;;;1.63;78.46;101443.72;5091434;28;1165;-59
2022/02/13 02:41:40;;;;;;;;;;;;;;;1.64;78.32;101448.06;5091713;28;823;-59
2022/02/13 02:44:07;;;;;;;;;;;;;;;1.63;78.13;101446.47;5091700;28;886;-59
2022/02/13 02:46:34;;;;;;;;;;;;;;;1.70;77.82;101438.69;5091819;28;893;-58
2022/02/13 02:49:01;;;;;;;;;;;;;;;1.78;77.06;101437.19;5091589;28;846;-59
2022/02/13 02:51:27;;;;;;;;;;;;;;;1.79;77.46;101436.88;5091512;28;909;-59
2022/02/13 02:53:53;;;;;;;;;;;;;;;1.78;76.67;101437.97;5091502;28;1914;-59
2022/02/13 02:56:20;;;;;;;;;;;;;;;1.76;77.24;101431.22;5090035;28;846;-59
2022/02/13 02:58:46;;;;;;;;;;;;;;;1.70;76.52;101433.22;5073340;28;929;-59
2022/02/13 03:01:13;;;;;;;;;;;;;;;1.68;76.65;101437.38;5091450;28;831;-58
2022/02/13 03:03:39;;;;;;;;;;;;;;;1.61;77.06;101437.78;5091490;28;850;-59
2022/02/13 03:06:06;;;;;;;;;;;;;;;1.58;77.58;101425.56;5091178;28;912;-58
2022/02/13 03:08:32;;;;;;;;;;;;;;;1.50;77.66;101425.47;5107522;28;893;-59
2022/02/13 03:11:01;;;;;;;;;;;;;;;1.48;77.84;101431.19;5091447;28;810;-59
2022/02/13 03:13:28;;;;;;;;;;;;;;;1.51;77.30;101421.63;5091333;28;850;-58
2022/02/13 03:15:55;;;;;;;;;;;;;;;1.46;77.52;101419.78;5107125;28;1878;-58
2022/02/13 03:18:22;;;;;;;;;;;;;;;1.37;77.40;101421.63;5093721;28;926;-59
2022/02/13 03:20:50;;;;;;;;;;;;;;;1.30;77.71;101422.00;5095034;28;914;-58
2022/02/13 03:23:17;;;;;;;;;;;;;;;1.27;78.34;101416.34;5095535;28;862;-59
2022/02/13 03:25:43;;;;;;;;;;;;;;;1.21;78.89;101412.91;5095147;28;927;-58
2022/02/13 03:28:10;;;;;;;;;;;;;;;1.23;78.94;101418.84;5095131;28;864;-59
2022/02/13 03:30:37;;;;;;;;;;;;;;;1.29;78.29;101409.47;5095167;28;882;-59
2022/02/13 03:33:03;;;;;;;;;;;;;;;1.25;78.80;101410.38;5095099;28;815;-59
2022/02/13 03:35:30;;;;;;;;;;;;;;;1.20;78.73;101412.09;5095053;28;1948;-59
2022/02/13 03:37:56;;;;;;;;;;;;;;;1.19;79.04;101409.66;5095006;28;1499;-58
2022/02/13 03:40:23;;;;;;;;;;;;;;;1.19;78.84;101402.28;5094897;28;921;-59
2022/02/13 03:42:50;;;;;;;;;;;;;;;1.20;78.71;101412.09;5094818;28;942;-58
2022/02/13 03:45:16;;;;;;;;;;;;;;;1.19;78.66;101405.00;5094849;28;815;-59
2022/02/13 03:47:43;;;;;;;;;;;;;;;1.22;78.46;101409.06;5094748;28;898;-59
2022/02/13 03:50:10;;;;;;;;;;;;;;;1.26;78.89;101401.94;5094641;28;882;-58
2022/02/13 03:52:37;;;;;;;;;;;;;;;1.35;78.93;101411.00;5094611;28;1010;-58
2022/02/13 03:55:04;;;;;;;;;;;;;;;1.33;78.49;101415.94;5094500;28;1909;-59
2022/02/13 03:57:31;;;;;;;;;;;;;;;1.33;78.68;101399.59;5094550;28;861;-58
2022/02/13 03:59:57;;;;;;;;;;;;;;;1.30;78.92;101402.94;5094495;28;783;-59
2022/02/13 04:02:24;;;;;;;;;;;;;;;1.24;78.74;101404.13;5094587;28;811;-58
2022/02/13 04:04:51;;;;;;;;;;;;;;;1.29;78.22;101398.59;5094593;28;819;-59
2022/02/13 04:07:16;;;;;;;;;;;;;;;1.31;78.78;101395.56;5094599;28;866;-58
2022/02/13 04:09:43;;;;;;;;;;;;;;;1.33;78.08;101396.06;5094486;28;905;-58
2022/02/13 04:12:09;;;;;;;;;;;;;;;1.35;78.40;101399.31;5094867;28;885;-58
2022/02/13 04:14:36;;;;;;;;;;;;;;;1.41;78.07;101396.19;5094307;28;1945;-58
2022/02/13 04:17:03;;;;;;;;;;;;;;;1.42;77.84;101386.09;5094730;28;962;-58
2022/02/13 04:19:29;;;;;;;;;;;;;;;1.35;77.87;101402.84;5094280;28;822;-58
2022/02/13 04:21:55;;;;;;;;;;;;;;;1.35;78.14;101402.84;5094206;28;904;-59
2022/02/13 04:24:22;;;;;;;;;;;;;;;1.30;78.77;101407.56;5075953;28;1387;-58
2022/02/13 04:26:49;;;;;;;;;;;;;;;1.32;78.70;101405.34;5094287;28;818;-59
2022/02/13 04:29:15;;;;;;;;;;;;;;;1.31;78.74;101406.47;5092789;28;830;-59
2022/02/13 04:31:42;;;;;;;;;;;;;;;1.34;78.91;101411.28;5094029;28;885;-59
2022/02/13 04:34:08;;;;;;;;;;;;;;;1.38;78.41;101410.38;5093938;28;1881;-58
2022/02/13 04:36:35;;;;;;;;;;;;;;;1.38;79.00;101417.75;5093761;28;925;-58
2022/02/13 04:39:03;;;;;;;;;;;;;;;1.47;78.27;101409.69;5093752;28;1459;-59
2022/02/13 04:41:29;;;;;;;;;;;;;;;1.47;78.65;101410.50;5093779;28;858;-58
2022/02/13 04:43:56;;;;;;;;;;;;;;;1.51;78.39;101414.25;5093941;28;901;-58
2022/02/13 04:46:22;;;;;;;;;;;;;;;1.52;78.02;101418.59;5093760;28;826;-58
2022/02/13 04:48:48;;;;;;;;;;;;;;;1.50;78.59;101422.75;5093524;28;898;-58
2022/02/13 04:51:15;;;;;;;;;;;;;;;1.47;78.52;101418.69;5093613;28;870;-58
2022/02/13 04:53:41;;;;;;;;;;;;;;;1.42;78.85;101416.84;5093578;28;811;-58
2022/02/13 04:56:10;;;;;;;;;;;;;;;1.39;79.29;101425.66;5093493;28;877;-58
2022/02/13 04:58:36;;;;;;;;;;;;;;;1.38;79.31;101424.00;5093781;28;831;-58
2022/02/13 05:01:03;;;;;;;;;;;;;;;1.30;79.54;101419.28;5093247;28;843;-58
2022/02/13 05:03:29;;;;;;;;;;;;;;;1.38;79.99;101428.66;5093376;28;854;-58
2022/02/13 05:05:57;;;;;;;;;;;;;;;1.38;79.19;101425.94;5093293;28;867;-58
2022/02/13 05:08:23;;;;;;;;;;;;;;;1.30;79.20;101426.63;5093310;28;894;-59
2022/02/13 05:10:50;;;;;;;;;;;;;;;1.24;80.00;101417.75;5093114;28;902;-59
2022/02/13 05:13:16;;;;;;;;;;;;;;;1.31;79.56;101420.88;5093231;28;823;-59
2022/02/13 05:15:43;;;;;;;;;;;;;;;1.25;79.71;101427.53;5093047;28;1881;-59
2022/02/13 05:18:09;;;;;;;;;;;;;;;1.28;79.25;101417.94;5093086;28;958;-59
2022/02/13 05:20:36;;;;;;;;;;;;;;;1.30;79.26;101426.63;5093309;28;795;-58
2022/02/13 05:23:02;;;;;;;;;;;;;;;1.36;79.38;101428.97;5093012;28;822;-58
2022/02/13 05:25:28;;;;;;;;;;;;;;;1.44;78.84;101424.75;5092853;28;878;-59
2022/02/13 05:27:55;;;;;;;;;;;;;;;1.48;78.39;101428.47;5092770;28;850;-59
2022/02/13 05:30:21;;;;;;;;;;;;;;;1.57;77.92;101428.59;5092788;28;858;-59
2022/02/13 05:32:47;;;;;;;;;;;;;;;1.59;78.18;101431.81;5092854;28;849;-58
2022/02/13 05:35:13;;;;;;;;;;;;;;;1.54;77.97;101430.00;5092674;28;1981;-59
2022/02/13 05:37:40;;;;;;;;;;;;;;;1.56;78.18;101435.16;5092445;28;1452;-58
2022/02/13 05:40:08;;;;;;;;;;;;;;;1.58;77.13;101435.63;5092353;28;921;-58
2022/02/13 05:42:33;;;;;;;;;;;;;;;1.64;77.65;101437.16;5092834;28;869;-59
2022/02/13 05:45:00;;;;;;;;;;;;;;;1.86;77.60;101438.38;5092523;28;913;-58
2022/02/13 05:47:26;;;;;;;;;;;;;;;2.00;76.72;101437.25;5092556;28;894;-59
2022/02/13 05:49:53;;;;;;;;;;;;;;;2.13;76.49;101440.28;5092415;28;956;-58
2022/02/13 05:52:19;;;;;;;;;;;;;;;2.28;75.38;101436.41;5092394;28;922;-58
2022/02/13 05:54:46;;;;;;;;;;;;;;;2.53;75.29;101449.50;5092310;28;1987;-59
2022/02/13 05:57:13;;;;;;;;;;;;;;;2.84;74.39;101446.06;5092289;28;921;-59
2022/02/13 05:59:40;;;;;;;;;;;;;;;3.00;73.34;101441.81;5092239;28;798;-58
2022/02/13 06:02:06;;;;;;;;;;;;;;;3.26;72.18;101439.28;5092323;28;955;-58
2022/02/13 06:04:33;;;;;;;;;;;;;;;3.53;70.98;101436.66;5108009;28;903;-58
2022/02/13 06:06:59;;;;;;;;;;;;;;;3.57;71.20;101434.91;5092239;28;860;-58
2022/02/13 06:09:26;;;;;;;;;;;;;;;3.73;70.82;101438.03;5092335;28;878;-59
2022/02/13 06:11:51;;;;;;;;;;;;;;;3.81;70.76;101440.00;5092408;28;803;-58
2022/02/13 06:14:19;;;;;;;;;;;;;;;4.40;69.17;101434.16;5108232;28;1890;-58
2022/02/13 06:16:45;;;;;;;;;;;;;;;4.54;67.68;101439.47;5092379;28;949;-58
2022/02/13 06:19:12;;;;;;;;;;;;;;;5.16;65.64;101430.09;5092622;28;772;-58
2022/02/13 06:21:38;;;;;;;;;;;;;;;5.59;64.80;101440.09;5092144;28;782;-58
2022/02/13 06:24:05;;;;;;;;;;;;;;;6.11;62.36;101435.22;5091932;28;827;-59
2022/02/13 06:26:35;;;;;;;;;;;;;;;6.27;61.33;101443.69;5091726;28;843;-59
2022/02/13 06:29:02;;;;;;;;;;;;;;;6.57;59.96;101434.56;5091839;28;807;-59
2022/02/13 06:31:28;;;;;;;;;;;;;;;6.44;60.62;101430.94;5092067;28;794;-58
2022/02/13 06:33:55;;;;;;;;;;;;;;;6.86;59.33;101431.72;5092019;28;1889;-58
2022/02/13 06:36:22;;;;;;;;;;;;;;;7.24;57.88;101422.47;5091895;28;911;-58
2022/02/13 06:38:48;;;;;;;;;;;;;;;7.60;56.98;101420.94;5091799;28;1325;-58
2022/02/13 06:41:15;;;;;;;;;;;;;;;7.07;56.93;101423.44;5092299;28;879;-58
2022/02/13 06:43:41;;;;;;;;;;;;;;;6.61;58.17;101422.56;5091703;28;796;-58
2022/02/13 06:46:08;;;;;;;;;;;;;;;6.45;58.65;101419.63;5091923;28;823;-58
2022/02/13 06:48:35;;;;;;;;;;;;;;;6.77;57.72;101420.03;5107393;28;881;-58
2022/02/13 06:51:01;;;;;;;;;;;;;;;7.09;56.99;101432.16;5091679;28;949;-58
2022/02/13 06:53:28;;;;;;;;;;;;;;;7.40;56.74;101425.34;5090729;28;913;-58
2022/02/13 06:55:55;;;;;;;;;;;;;;;7.47;55.09;101420.09;5091458;28;1910;-59
2022/02/13 06:58:22;;;;;;;;;;;;;;;7.91;56.14;101433.31;5091474;28;913;-58
2022/02/13 07:00:48;;;;;;;;;;;;;;;8.01;54.32;101421.84;5091452;28;803;-59
2022/02/13 07:03:15;;;;;;;;;;;;;;;7.29;55.33;101432.44;5091384;28;823;-58
2022/02/13 07:05:41;;;;;;;;;;;;;;;7.01;56.21;101419.31;5091449;28;840;-58
2022/02/13 07:08:07;;;;;;;;;;;;;;;6.89;57.13;101416.50;5091334;28;886;-59
2022/02/13 07:10:34;;;;;;;;;;;;;;;6.85;56.84;101412.81;5091252;28;989;-58
2022/02/13 07:13:00;;;;;;;;;;;;;;;7.35;56.36;101420.09;5091482;28;815;-58
2022/02/13 07:15:27;;;;;;;;;;;;;;;8.09;55.16;101417.38;5091238;28;1886;-58
2022/02/13 07:17:54;;;;;;;;;;;;;;;8.03;54.21;101410.50;5091264;28;811;-58
2022/02/13 07:20:20;;;;;;;;;;;;;;;7.85;54.55;101407.97;5091398;28;886;-59
2022/02/13 07:22:47;;;;;;;;;;;;;;;7.65;55.33;101408.88;5073221;28;1551;-59
2022/02/13 07:25:13;;;;;;;;;;;;;;;7.27;56.21;101409.97;5091234;28;859;-58
2022/02/13 07:27:40;;;;;;;;;;;;;;;7.19;57.19;101408.94;5090933;28;946;-59
2022/02/13 07:30:12;;;;;;;;;;;;;;;7.60;56.22;101401.66;5091159;28;855;-58
2022/02/13 07:32:40;;;;;;;;;;;;;;;8.21;54.37;101400.00;5090911;28;902;-58
2022/02/13 07:35:07;;;;;;;;;;;;;;;8.67;52.16;101381.31;5090835;28;1955;-58
2022/02/13 07:37:33;;;;;;;;;;;;;;;8.54;52.18;101389.63;5090926;28;1626;-58
2022/02/13 07:39:59;;;;;;;;;;;;;;;8.50;53.01;101393.44;5090997;28;823;-59
2022/02/13 07:42:26;;;;;;;;;;;;;;;7.81;54.20;101397.97;5090956;28;942;-59
2022/02/13 07:44:53;;;;;;;;;;;;;;;8.10;54.59;101400.47;5090982;28;925;-59
2022/02/13 07:47:19;;;;;;;;;;;;;;;8.09;54.83;101409.91;5091027;28;1120;-59
2022/02/13 07:49:46;;;;;;;;;;;;;;;7.66;55.14;101407.72;5091014;28;962;-58
2022/02/13 07:52:13;;;;;;;;;;;;;;;7.20;56.98;101399.53;5091083;28;934;-58
2022/02/13 07:54:40;;;;;;;;;;;;;;;7.11;56.41;101396.09;5090727;28;1914;-58
2022/02/13 07:57:07;;;;;;;;;;;;;;;6.75;58.46;101401.13;5091047;28;924;-59
2022/02/13 07:59:34;;;;;;;;;;;;;;;6.57;58.73;101390.63;5090954;28;901;-58
2022/02/13 08:02:00;;;;;;;;;;;;;;;7.29;57.96;101391.97;5091227;28;819;-58
2022/02/13 08:04:27;;;;;;;;;;;;;;;7.54;56.00;101384.56;5093367;28;1056;-58
2022/02/13 08:06:54;;;;;;;;;;;;;;;7.62;55.21;101382.88;5094493;28;807;-58
2022/02/13 08:09:21;;;;;;;;;;;;;;;7.47;55.14;101387.09;5094352;28;977;-58
2022/02/13 08:11:47;;;;;;;;;;;;;;;7.40;55.86;101384.09;5094326;28;933;-58
2022/02/13 08:14:14;;;;;;;;;;;;;;;7.71;55.50;101372.53;5094316;28;1893;-59
2022/02/13 08:16:39;;;;;;;;;;;;;;;7.41;56.46;101380.22;5094655;28;1002;-58
2022/02/13 08:19:06;;;;;;;;;;;;;;;7.88;55.19;101382.50;5094184;28;854;-59
2022/02/13 08:21:32;;;;;;;;;;;;;;;8.00;53.95;101386.38;5094196;28;817;-58
2022/02/13 08:23:59;;;;;;;;;;;;;;;7.87;54.67;101372.66;5094065;28;859;-59
2022/02/13 08:26:25;;;;;;;;;;;;;;;7.97;54.46;101372.16;5094094;28;879;-59
2022/02/13 08:28:51;;;;;;;;;;;;;;;8.06;54.25;101374.78;5093923;28;862;-59
2022/02/13 08:31:19;;;;;;;;;;;;;;;8.29;53.68;101366.00;5094127;28;854;-59
2022/02/13 08:33:47;;;;;;;;;;;;;;;8.55;53.73;101368.38;5093909;28;1061;-59
2022/02/13 08:36:14;;;;;;;;;;;;;;;8.59;52.97;101377.53;5093910;28;1940;-59
2022/02/13 08:38:41;;;;;;;;;;;;;;;9.01;52.04;101368.03;5093604;28;1172;-59
2022/02/13 08:41:08;;;;;;;;;;;;;;;9.49;50.30;101363.34;5093918;28;853;-59
2022/02/13 08:43:35;;;;;;;;;;;;;;;9.78;49.50;101370.34;5093784;28;843;-59
2022/02/13 08:46:02;;;;;;;;;;;;;;;9.82;49.98;101372.03;5093563;28;921;-59
2022/02/13 08:48:28;;;;;;;;;;;;;;;9.37;49.47;101367.00;5093404;28;965;-59
2022/02/13 08:50:55;;;;;;;;;;;;;;;9.53;48.53;101356.75;5093596;28;933;-59
2022/02/13 08:53:20;;;;;;;;;;;;;;;8.98;49.54;101353.81;5093605;28;846;-59
2022/02/13 08:55:47;;;;;;;;;;;;;;;8.85;49.51;101354.22;5093471;28;1969;-59
2022/02/13 08:58:13;;;;;;;;;;;;;;;8.55;50.88;101357.34;5093446;28;894;-59
2022/02/13 09:00:40;;;;;;;;;;;;;;;9.39;51.05;101350.91;5093501;28;869;-59
2022/02/13 09:03:06;;;;;;;;;;;;;;;9.98;48.49;101360.13;5075331;28;816;-59
2022/02/13 09:05:33;;;;;;;;;;;;;;;10.15;47.45;101356.97;5093585;28;902;-59
2022/02/13 09:07:59;;;;;;;;;;;;;;;10.39;44.87;101344.06;5093428;28;889;-58
2022/02/13 09:10:26;;;;;;;;;;;;;;;9.92;46.86;101342.25;5093321;28;795;-59
2022/02/13 09:12:53;;;;;;;;;;;;;;;9.38;47.29;101354.78;5093379;28;850;-59
2022/02/13 09:15:20;;;;;;;;;;;;;;;9.09;47.57;101342.22;5092434;28;1955;-59
2022/02/13 09:17:47;;;;;;;;;;;;;;;9.41;47.92;101337.53;5093074;28;875;-59
2022/02/13 09:20:13;;;;;;;;;;;;;;;9.53;46.84;101334.66;5093120;28;878;-59
2022/02/13 09:22:40;;;;;;;;;;;;;;;9.41;47.42;101337.53;5108812;28;904;-59
2022/02/13 09:25:07;;;;;;;;;;;;;;;8.92;49.33;101337.88;5092844;28;818;-59
2022/02/13 09:27:34;;;;;;;;;;;;;;;8.81;48.92;101331.25;5092764;28;851;-59
2022/02/13 09:30:02;;;;;;;;;;;;;;;8.48;49.92;101335.09;5092909;28;827;-59
2022/02/13 09:32:28;;;;;;;;;;;;;;;8.71;49.16;101324.31;5092784;28;953;-59
2022/02/13 09:34:55;;;;;;;;;;;;;;;8.64;49.22;101321.34;5092655;28;1949;-60
2022/02/13 09:37:23;;;;;;;;;;;;;;;8.92;47.93;101324.09;5092489;28;1309;-59
2022/02/13 09:39:50;;;;;;;;;;;;;;;9.42;48.76;101319.03;5092717;28;958;-59
2022/02/13 09:42:20;;;;;;;;;;;;;;;9.24;46.50;101318.56;5092726;28;849;-59
2022/02/13 09:44:47;;;;;;;;;;;;;;;8.94;47.81;101313.47;5092599;28;834;-59
2022/02/13 09:47:15;;;;;;;;;;;;;;;8.39;48.64;101315.94;5092623;28;815;-59
2022/02/13 09:49:41;;;;;;;;;;;;;;;8.08;49.47;101320.16;5092543;28;830;-59
2022/02/13 09:52:11;;;;;;;;;;;;;;;8.08;50.02;101319.38;5092514;28;833;-60
2022/02/13 09:54:38;;;;;;;;;;;;;;;8.57;49.55;101303.47;5092093;28;1905;-59
2022/02/13 09:59:52;;;;;;;;;;;;;;;8.97;49.77;101296.25;5092460;28;668;-59
2022/02/13 10:02:37;;;;;;;;;;;;;;;9.00;47.60;101295.53;5092243;28;846;-59
2022/02/13 10:05:06;;;;;;;;;;;;;;;8.35;48.52;101293.78;5092192;28;901;-60
2022/02/13 10:07:34;;;;;;;;;;;;;;;7.86;50.07;101293.94;5092074;28;890;-60
2022/02/13 10:10:00;;;;;;;;;;;;;;;7.78;50.48;101287.41;5092057;28;874;-60
2022/02/13 10:12:31;;;;;;;;;;;;;;;8.07;50.14;101284.72;5092111;28;932;-59
2022/02/13 10:14:58;;;;;;;;;;;;;;;8.59;48.39;101279.13;5092128;28;1971;-59
2022/02/13 10:17:25;;;;;;;;;;;;;;;8.53;47.54;101268.69;5092083;28;811;-59
2022/02/13 10:19:52;;;;;;;;;;;;;;;8.97;46.24;101274.19;5091684;28;934;-59
2022/02/13 10:22:33;;;;;;;;;;;;;;;9.48;45.55;101270.66;5091927;28;853;-59
2022/02/13 10:25:17;;;;;;;;;;;;;;;9.95;44.11;101242.91;5107042;28;981;-59
2022/02/13 10:27:49;;;;;;;;;;;;;;;9.74;44.29;101251.53;5090971;28;995;-59
2022/02/13 10:30:38;;;;;;;;;;;;;;;9.91;44.07;101244.78;5091720;28;926;-59
2022/02/13 10:33:34;;;;;;;;;;;;;;;9.51;43.59;101245.88;5083633;28;1999;-59
2022/02/13 10:36:10;;;;;;;;;;;;;;;9.55;44.06;101234.94;5078652;28;1890;-59
2022/02/13 10:38:38;;;;;;;;;;;;;;;10.02;43.04;101233.97;5091298;28;1382;-59
2022/02/13 10:41:15;;;;;;;;;;;;;;;9.71;43.95;101234.91;5091781;28;859;-59
2022/02/13 10:44:02;;;;;;;;;;;;;;;9.23;46.03;101236.97;5091635;28;803;-60
2022/02/13 10:46:30;;;;;;;;;;;;;;;8.49;47.69;101241.06;5091681;28;858;-59
2022/02/13 10:48:58;;;;;;;;;;;;;;;8.13;48.32;101229.03;5091626;28;850;-60
2022/02/13 10:51:23;;;;;;;;;;;;;;;7.93;49.47;101230.81;5091401;28;942;-59
2022/02/13 10:53:50;;;;;;;;;;;;;;;8.12;49.62;101221.13;5091368;28;906;-59
2022/02/13 10:56:17;;;;;;;;;;;;;;;8.16;49.78;101209.06;5091389;28;1995;-59
2022/02/13 10:58:44;;;;;;;;;;;;;;;7.86;50.58;101227.88;5091723;28;839;-59
2022/02/13 11:01:11;;;;;;;;;;;;;;;7.68;49.99;101218.28;5091714;28;874;-60
2022/02/13 11:03:38;;;;;;;;;;;;;;;7.20;50.51;101226.28;5091359;28;843;-59
2022/02/13 11:06:05;;;;;;;;;;;;;;;7.15;51.26;101213.56;5091668;28;914;-59
2022/02/13 11:08:34;;;;;;;;;;;;;;;7.39;50.98;101200.16;5091392;28;851;-60
2022/02/13 11:11:01;;;;;;;;;;;;;;;7.56;50.83;101211.69;5091325;28;910;-59
2022/02/13 11:13:29;;;;;;;;;;;;;;;7.35;50.10;101197.28;5091325;28;930;-59
2022/02/13 11:15:56;;;;;;;;;;;;;;;7.54;49.89;101205.72;5091213;28;1890;-59
2022/02/13 11:18:25;;;;;;;;;;;;;;;7.12;51.61;101197.75;5091044;28;965;-59
2022/02/13 11:20:54;;;;;;;;;;;;;;;6.74;53.58;101198.91;5091400;28;846;-59
2022/02/13 11:23:22;;;;;;;;;;;;;;;6.60;55.08;101192.94;5091101;28;898;-59
2022/02/13 11:25:53;;;;;;;;;;;;;;;6.66;55.36;101188.84;5091358;28;949;-59
2022/02/13 11:28:25;;;;;;;;;;;;;;;6.91;54.46;101194.31;5091006;28;899;-59
2022/02/13 11:30:52;;;;;;;;;;;;;;;7.07;54.56;101194.44;5091471;28;854;-59
2022/02/13 11:33:24;;;;;;;;;;;;;;;7.24;54.23;101176.91;5091146;28;932;-59
2022/02/13 11:36:09;;;;;;;;;;;;;;;7.16;53.40;101175.88;5091393;28;1953;-59
2022/02/13 11:38:38;;;;;;;;;;;;;;;6.98;53.79;101172.59;5092148;28;1192;-59
2022/02/13 11:41:05;;;;;;;;;;;;;;;7.08;53.16;101172.13;5095103;28;885;-59
2022/02/13 11:43:53;;;;;;;;;;;;;;;7.82;49.71;101162.88;5095079;28;886;-59
2022/02/13 11:46:34;;;;;;;;;;;;;;;8.36;47.97;101145.81;5095023;28;842;-59
2022/02/13 11:49:04;;;;;;;;;;;;;;;8.39;47.72;101143.16;5094778;28;901;-59
2022/02/13 11:51:46;;;;;;;;;;;;;;;8.13;47.63;101149.19;5095167;28;822;-59
2022/02/13 11:54:30;;;;;;;;;;;;;;;7.36;48.40;101149.34;5094608;28;1905;-59
2022/02/13 11:57:07;;;;;;;;;;;;;;;6.92;51.74;101152.75;5095394;28;862;-59
2022/02/13 11:59:52;;;;;;;;;;;;;;;6.72;52.17;101148.19;5094740;28;799;-60
2022/02/13 12:02:31;;;;;;;;;;;;;;;6.83;51.46;101132.03;5094681;28;815;-59
2022/02/13 12:05:07;;;;;;;;;;;;;;;6.83;52.14;101132.03;5094271;28;926;-60
2022/02/13 12:07:34;;;;;;;;;;;;;;;7.06;50.81;101133.19;5094579;28;807;-59
2022/02/13 12:10:01;;;;;;;;;;;;;;;7.04;50.21;101135.47;5094504;28;962;-60
2022/02/13 12:12:32;;;;;;;;;;;;;;;6.95;49.81;101126.53;5094410;28;882;-59
2022/02/13 12:14:58;;;;;;;;;;;;;;;6.80;50.34;101127.22;5094345;28;1947;-60
2022/02/13 12:17:26;;;;;;;;;;;;;;;6.75;50.18;101122.78;5094176;28;846;-59
2022/02/13 12:20:01;;;;;;;;;;;;;;;6.60;51.17;101116.03;5094305;28;877;-59
2022/02/13 12:22:27;;;;;;;;;;;;;;;6.56;51.91;101112.34;5094041;28;933;-59
2022/02/13 12:24:57;;;;;;;;;;;;;;;6.79;52.13;101115.44;5094186;28;831;-59
2022/02/13 12:27:24;;;;;;;;;;;;;;;7.03;51.10;101119.31;5094771;28;832;-59
2022/02/13 12:29:57;;;;;;;;;;;;;;;7.00;51.00;101112.56;5109847;28;811;-59
2022/02/13 12:32:26;;;;;;;;;;;;;;;6.71;52.52;101122.66;5093975;28;1092;-59
2022/02/13 12:34:54;;;;;;;;;;;;;;;6.57;52.70;101105.69;5075724;28;1931;-59
2022/02/13 12:37:32;;;;;;;;;;;;;;;6.62;52.37;101107.44;5093674;28;1213;-59
2022/02/13 12:39:58;;;;;;;;;;;;;;;6.88;51.71;101102.38;5093838;28;934;-59
2022/02/13 12:42:35;;;;;;;;;;;;;;;6.97;51.36;101095.94;5094038;28;813;-59
2022/02/13 12:45:03;;;;;;;;;;;;;;;7.06;50.63;101105.69;5093761;28;906;-59
2022/02/13 12:47:33;;;;;;;;;;;;;;;7.00;51.36;101104.31;5075559;28;1313;-59
2022/02/13 12:50:03;;;;;;;;;;;;;;;6.95;50.68;101097.09;5092642;28;918;-59
2022/02/13 12:52:30;;;;;;;;;;;;;;;6.93;51.53;101096.66;5093506;28;811;-59
2022/02/13 12:54:58;;;;;;;;;;;;;;;7.28;51.31;101089.81;5093602;28;1976;-59
2022/02/13 12:57:28;;;;;;;;;;;;;;;7.21;50.07;101092.34;5092235;28;1546;-59
2022/02/13 12:59:55;;;;;;;;;;;;;;;7.48;50.35;101086.06;5093926;28;922;-59
2022/02/13 13:02:24;;;;;;;;;;;;;;;7.41;49.67;101088.63;5093325;28;858;-59
2022/02/13 13:04:51;;;;;;;;;;;;;;;7.43;49.95;101088.28;5093775;28;855;-59
2022/02/13 13:07:22;;;;;;;;;;;;;;;7.12;51.75;101079.53;5093987;28;759;-59
2022/02/13 13:09:49;;;;;;;;;;;;;;;6.83;53.88;101082.56;5093625;28;834;-59